Time;durP1;ratioP1;P1;durP2;ratioP2;P2;SDS_P1;SDS_P2;PMS_P1;PMS_P2;Temp;Humidity;BMP_temperature;BMP_pressure;BME280_temperature;BME280_humidity;BME280_pressure;Samples;Min_cycle;Max_cycle;Signal;HPM_P1;HPM_P2
2022/04/29 00:02:21;;;;;;;7.00;2.60;;;;;;;5.04;64.57;99785.29;104478;1280;61154;-27
2022/04/29 00:04:49;;;;;;;7.30;2.40;;;;;;;5.03;64.57;99778.80;104848;1276;61038;-27
2022/04/29 00:07:21;;;;;;;4.00;2.10;;;;;;;5.07;64.22;99781.23;104817;1277;74507;-27
2022/04/29 00:10:13;;;;;;;3.80;2.00;;;;;;;4.91;64.72;99781.96;104787;1276;77102;-27
2022/04/29 00:12:43;;;;;;;10.20;3.40;;;;;;;4.61;66.33;99784.00;104488;1277;74441;-27
2022/04/29 00:15:16;;;;;;;9.90;3.20;;;;;;;4.43;66.92;99785.29;104620;1277;61720;-27
2022/04/29 00:17:51;;;;;;;9.70;3.00;;;;;;;4.37;67.00;99781.80;104597;1277;61139;-27
2022/04/29 00:20:18;;;;;;;5.40;2.60;;;;;;;4.53;66.83;99778.51;104901;1277;73627;-27
2022/04/29 00:22:46;;;;;;;8.40;3.50;;;;;;;5.33;64.55;99781.20;104841;1277;75825;-27
2022/04/29 00:25:15;;;;;;;8.60;4.40;;;;;;;5.79;62.80;99788.27;104744;1277;74452;-27
2022/04/29 00:27:44;;;;;;;6.30;2.90;;;;;;;5.62;63.32;99794.27;104856;1277;61141;-27
2022/04/29 00:30:12;;;;;;;7.70;6.00;;;;;;;5.29;64.17;99794.98;104690;1276;61169;-27
2022/04/29 00:32:43;;;;;;;7.00;4.20;;;;;;;4.98;64.68;99786.11;104745;1277;73687;-27
2022/04/29 00:35:13;;;;;;;10.40;4.10;;;;;;;4.90;65.06;99784.39;104749;1276;76040;-27
2022/04/29 00:37:43;;;;;;;4.60;3.10;;;;;;;4.69;65.83;99791.02;104696;1276;74247;-27
2022/04/29 00:40:17;;;;;;;13.40;7.70;;;;;;;4.56;65.96;99790.73;104404;1277;61135;-27
2022/04/29 00:42:45;;;;;;;13.70;7.70;;;;;;;4.42;66.69;99786.89;104380;1277;61089;-27
2022/04/29 00:45:16;;;;;;;8.40;4.10;;;;;;;4.29;67.04;99784.01;104719;1277;74723;-27
2022/04/29 00:47:45;;;;;;;5.90;3.50;;;;;;;4.16;67.94;99783.69;104635;1277;76103;-27
2022/04/29 00:50:15;;;;;;;5.00;2.80;;;;;;;3.95;69.32;99785.98;104602;1277;74519;-27
2022/04/29 00:52:46;;;;;;;9.00;5.30;;;;;;;4.26;69.13;99786.36;104447;1277;61282;-27
2022/04/29 00:55:14;;;;;;;17.70;9.90;;;;;;;4.70;66.20;99786.19;104625;1277;61181;-27
2022/04/29 00:57:53;;;;;;;8.50;4.90;;;;;;;4.69;65.69;99784.31;104636;1277;74838;-27
2022/04/29 01:00:22;;;;;;;5.30;3.20;;;;;;;4.61;65.94;99781.58;104379;1277;75985;-27
2022/04/29 01:02:52;;;;;;;6.60;3.10;;;;;;;4.65;65.99;99782.06;104387;1277;74180;-28
2022/04/29 01:05:21;;;;;;;7.00;3.50;;;;;;;4.55;66.08;99779.96;104400;1277;61156;-27
2022/04/29 01:07:49;;;;;;;10.10;3.80;;;;;;;4.26;66.85;99778.29;104356;1277;62387;-28
2022/04/29 01:10:20;;;;;;;8.40;3.90;;;;;;;4.03;67.65;99782.02;104570;1277;74792;-28
2022/04/29 01:12:50;;;;;;;10.50;4.30;;;;;;;3.98;68.03;99783.93;104681;1277;75976;-26
2022/04/29 01:15:22;;;;;;;9.00;4.30;;;;;;;3.90;68.29;99778.80;104485;1277;73387;-26
2022/04/29 01:17:58;;;;;;;9.70;3.30;;;;;;;3.83;68.60;99783.36;104632;1277;61123;-26
2022/04/29 01:20:31;;;;;;;7.20;3.60;;;;;;;4.12;67.69;99778.02;104504;1277;61121;-26
2022/04/29 01:23:07;;;;;;;9.70;3.90;;;;;;;4.56;65.74;99777.31;104508;1277;74775;-26
2022/04/29 01:25:38;;;;;;;11.30;3.50;;;;;;;4.70;65.13;99779.80;104642;1278;76072;-26
2022/04/29 01:28:06;;;;;;;5.90;3.70;;;;;;;4.55;65.42;99776.51;104646;1277;74648;-27
2022/04/29 01:30:36;;;;;;;8.30;3.60;;;;;;;4.38;66.06;99771.61;104835;1277;61080;-27
2022/04/29 01:33:04;;;;;;;6.90;3.30;;;;;;;4.19;66.67;99770.34;104615;1277;61068;-27
2022/04/29 01:35:32;;;;;;;9.00;3.80;;;;;;;4.02;67.31;99768.66;104620;1277;72507;-27
2022/04/29 01:38:00;;;;;;;7.70;3.50;;;;;;;3.95;67.86;99769.66;104632;1276;75893;-26
2022/04/29 01:40:28;;;;;;;7.20;2.80;;;;;;;3.86;68.01;99759.52;104534;1277;74411;-27
2022/04/29 01:42:58;;;;;;;5.80;2.20;;;;;;;3.86;67.30;99759.56;104533;1278;61196;-26
2022/04/29 01:45:26;;;;;;;4.90;2.30;;;;;;;3.76;66.62;99752.55;104690;1277;61035;-26
2022/04/29 01:48:12;;;;;;;5.40;2.10;;;;;;;3.64;66.15;99749.96;104691;1277;74705;-27
2022/04/29 01:50:49;;;;;;;4.70;2.20;;;;;;;3.52;66.54;99751.88;104686;1277;76284;-26
2022/04/29 01:53:17;;;;;;;3.70;1.60;;;;;;;3.42;67.53;99754.98;104600;1277;74503;-26
2022/04/29 01:55:46;;;;;;;6.50;3.00;;;;;;;3.89;67.72;99749.29;104442;1277;61068;-27
2022/04/29 01:58:14;;;;;;;6.70;2.80;;;;;;;4.49;65.74;99751.48;104455;1278;61105;-26
2022/04/29 02:00:42;;;;;;;5.70;2.50;;;;;;;4.74;64.71;99750.04;104501;1277;74764;-27
2022/04/29 02:03:11;;;;;;;6.10;2.90;;;;;;;4.73;64.61;99750.61;104438;1277;76054;-26
2022/04/29 02:05:39;;;;;;;9.20;3.20;;;;;;;4.57;64.55;99747.34;104521;1277;74260;-27
2022/04/29 02:08:10;;;;;;;8.40;3.70;;;;;;;4.36;65.18;99742.27;104828;1277;61230;-26
2022/04/29 02:10:40;;;;;;;9.30;3.80;;;;;;;4.11;66.35;99736.98;104657;1277;61039;-27
2022/04/29 02:13:10;;;;;;;11.70;3.70;;;;;;;3.93;66.79;99736.55;104678;1277;74761;-26
2022/04/29 02:15:46;;;;;;;9.40;3.10;;;;;;;3.79;66.58;99734.27;104709;1277;76139;-26
2022/04/29 02:18:16;;;;;;;8.10;3.90;;;;;;;3.66;66.33;99733.92;104688;1277;74568;-26
2022/04/29 02:20:47;;;;;;;12.20;6.80;;;;;;;3.57;66.86;99732.75;104645;1277;61022;-27
2022/04/29 02:23:15;;;;;;;14.90;7.50;;;;;;;3.49;67.57;99732.38;105049;1274;61084;-27
2022/04/29 02:25:43;;;;;;;27.50;14.20;;;;;;;3.40;68.37;99736.02;105007;1274;75392;-26
2022/04/29 02:28:12;;;;;;;11.10;4.20;;;;;;;3.37;68.84;99738.02;105134;1274;75965;-26
2022/04/29 02:30:43;;;;;;;12.60;5.10;;;;;;;3.94;68.66;99741.35;105078;1271;73390;-28
2022/04/29 02:33:10;;;;;;;8.20;4.40;;;;;;;4.65;67.07;99744.39;104957;1271;62022;-27
2022/04/29 02:35:37;;;;;;;10.10;4.40;;;;;;;4.87;65.97;99750.27;104955;1271;61073;-27
2022/04/29 02:38:06;;;;;;;12.50;5.40;;;;;;;4.84;65.55;99749.56;104906;1271;74611;-27
2022/04/29 02:40:33;;;;;;;9.00;5.80;;;;;;;4.72;65.96;99747.38;104871;1271;77337;-27
2022/04/29 02:43:01;;;;;;;8.50;4.70;;;;;;;4.54;65.93;99746.11;104782;1271;74471;-27
2022/04/29 02:45:30;;;;;;;7.70;3.60;;;;;;;4.39;67.33;99747.46;104879;1271;61033;-26
2022/04/29 02:47:57;;;;;;;5.80;3.00;;;;;;;4.22;68.61;99753.05;104806;1271;61054;-26
2022/04/29 02:50:25;;;;;;;3.10;2.10;;;;;;;4.03;70.06;99754.71;105043;1271;75665;-27
2022/04/29 02:53:06;;;;;;;6.40;2.80;;;;;;;3.91;69.68;99755.88;105086;1271;75830;-26
2022/04/29 02:55:33;;;;;;;4.80;2.80;;;;;;;3.82;69.72;99756.10;105153;1271;74161;-26
2022/04/29 02:58:01;;;;;;;7.30;2.40;;;;;;;3.78;70.33;99753.86;105084;1270;61165;-26
2022/04/29 03:00:32;;;;;;;5.30;2.60;;;;;;;4.34;68.80;99756.61;104987;1274;61791;-27
2022/04/29 03:02:59;;;;;;;3.50;1.90;;;;;;;5.07;67.32;99758.82;104904;1271;75704;-27
2022/04/29 03:05:28;;;;;;;7.10;1.50;;;;;;;5.32;65.51;99758.85;105078;1271;75839;-26
2022/04/29 03:08:00;;;;;;;3.50;1.60;;;;;;;5.30;64.94;99759.64;105062;1271;73079;-26
2022/04/29 03:10:27;;;;;;;2.70;1.80;;;;;;;5.11;66.13;99761.56;105158;1271;61160;-26
2022/04/29 03:12:55;;;;;;;5.90;2.00;;;;;;;4.77;67.77;99764.00;104638;1271;62045;-26
2022/04/29 03:15:35;;;;;;;3.00;1.60;;;;;;;4.52;69.79;99768.89;105015;1271;75304;-26
2022/04/29 03:18:18;;;;;;;2.40;1.30;;;;;;;4.33;72.04;99772.86;105007;1271;76127;-26
2022/04/29 03:20:48;;;;;;;4.20;2.40;;;;;;;4.07;72.60;99772.21;104991;1271;74324;-25
2022/04/29 03:23:25;;;;;;;4.40;1.90;;;;;;;3.91;71.55;99770.83;105059;1274;61072;-26
2022/04/29 03:25:53;;;;;;;5.30;2.80;;;;;;;3.83;71.78;99773.23;105141;1273;61794;-26
2022/04/29 03:28:21;;;;;;;4.30;1.90;;;;;;;3.86;71.65;99774.15;105156;1271;75355;-26
2022/04/29 03:30:50;;;;;;;5.10;2.30;;;;;;;4.57;70.43;99776.44;104938;1272;74562;-26
2022/04/29 03:33:20;;;;;;;4.10;2.50;;;;;;;5.30;66.62;99778.77;104816;1271;74204;-26
2022/04/29 03:35:50;;;;;;;5.20;2.30;;;;;;;5.49;64.13;99780.96;104702;1274;61037;-26
2022/04/29 03:38:35;;;;;;;6.20;2.70;;;;;;;5.43;64.56;99787.23;104759;1274;61869;-26
2022/04/29 03:41:03;;;;;;;3.90;2.50;;;;;;;5.36;66.43;99786.38;104647;1277;75396;-27
2022/04/29 03:43:31;;;;;;;6.20;2.50;;;;;;;5.22;66.99;99790.52;104886;1274;76123;-26
2022/04/29 03:45:59;;;;;;;8.20;3.50;;;;;;;5.09;65.10;99789.02;104851;1273;74391;-26
2022/04/29 03:51:45;;;;;;;85.50;28.30;;;;;;;4.88;64.76;99788.94;104781;1274;61956;-26
2022/04/29 03:54:15;;;;;;;34.90;9.30;;;;;;;4.97;64.33;99785.27;105012;1271;75706;-26
2022/04/29 03:56:52;;;;;;;20.30;8.00;;;;;;;5.06;64.38;99785.23;104778;1271;76000;-26
2022/04/29 03:59:20;;;;;;;15.60;6.20;;;;;;;5.11;64.08;99784.27;104701;1274;72370;-26
2022/04/29 04:01:51;;;;;;;13.40;5.00;;;;;;;5.15;63.89;99783.58;104876;1271;61150;-26
2022/04/29 04:04:21;;;;;;;6.80;3.30;;;;;;;5.17;63.41;99781.77;104804;1271;61891;-27
2022/04/29 04:06:49;;;;;;;7.60;3.70;;;;;;;5.23;63.32;99789.26;104920;1271;75552;-27
2022/04/29 04:09:22;;;;;;;15.60;7.20;;;;;;;5.21;63.07;99790.05;104722;1274;76294;-27
2022/04/29 04:11:50;;;;;;;10.10;5.30;;;;;;;5.32;62.53;99784.87;104660;1274;74380;-28
2022/04/29 04:14:36;;;;;;;10.40;5.70;;;;;;;5.40;61.79;99782.42;104773;1274;61298;-28
2022/04/29 04:17:09;;;;;;;11.30;5.80;;;;;;;5.49;62.35;99786.08;104795;1271;62495;-27
2022/04/29 04:19:37;;;;;;;9.70;5.10;;;;;;;5.59;61.80;99790.96;104708;1274;74865;-27
2022/04/29 04:22:05;;;;;;;10.90;5.30;;;;;;;5.68;62.27;99793.67;104719;1272;76179;-28
2022/04/29 04:24:38;;;;;;;;;;;;;;;5.69;62.21;99796.36;104896;1274;74353;-27
2022/04/29 04:27:06;;;;;;;15.40;6.70;;;;;;;5.69;61.55;99795.30;105112;1273;61150;-27
2022/04/29 04:29:37;;;;;;;10.10;5.00;;;;;;;5.85;60.68;99792.29;105124;1274;61143;-26
2022/04/29 04:32:06;;;;;;;9.60;5.20;;;;;;;6.00;60.27;99790.16;104902;1274;75320;-27
2022/04/29 04:34:53;;;;;;;6.20;4.70;;;;;;;6.13;60.61;99789.70;104676;1274;75639;-28
2022/04/29 04:37:22;;;;;;;7.50;4.00;;;;;;;6.23;59.80;99791.07;104911;1271;74419;-27
2022/04/29 04:39:53;;;;;;;4.00;2.90;;;;;;;6.33;59.82;99789.36;104785;1274;61047;-27
2022/04/29 04:42:23;;;;;;;5.10;2.00;;;;;;;6.41;58.70;99789.83;104957;1271;61060;-27
2022/04/29 04:44:53;;;;;;;4.40;2.30;;;;;;;6.41;59.08;99790.15;104926;1271;74517;-27
2022/04/29 04:47:21;;;;;;;5.00;3.50;;;;;;;6.41;58.86;99790.16;104938;1271;75849;-27
2022/04/29 04:50:11;;;;;;;4.80;3.20;;;;;;;6.44;58.96;99795.89;104829;1271;74658;-27
2022/04/29 04:52:43;;;;;;;5.70;1.90;;;;;;;6.43;58.91;99796.98;104796;1274;61100;-27
2022/04/29 04:55:11;;;;;;;4.10;1.90;;;;;;;6.51;60.16;99802.06;104732;1271;61760;-27
2022/04/29 04:57:42;;;;;;;5.10;1.80;;;;;;;6.62;59.68;99805.98;105115;1271;75429;-26
2022/04/29 05:00:11;;;;;;;3.00;1.70;;;;;;;6.72;59.03;99811.68;105075;1272;76124;-26
2022/04/29 05:02:58;;;;;;;2.60;1.80;;;;;;;6.84;58.79;99812.27;104612;1274;74379;-27
2022/04/29 05:05:47;;;;;;;4.50;1.50;;;;;;;7.03;57.75;99814.49;104779;1271;61335;-26
2022/04/29 05:08:15;;;;;;;3.50;1.60;;;;;;;7.24;57.59;99816.83;104730;1274;61140;-25
2022/04/29 05:10:43;;;;;;;3.00;1.60;;;;;;;7.56;57.27;99815.23;104906;1271;75696;-25
2022/04/29 05:13:16;;;;;;;6.10;2.30;;;;;;;8.03;55.94;99811.33;104980;1271;75964;-25
2022/04/29 05:15:50;;;;;;;5.60;2.20;;;;;;;8.50;54.18;99810.16;104737;1271;74245;-27
2022/04/29 05:18:31;;;;;;;8.40;2.60;;;;;;;8.71;52.76;99808.54;105011;1271;61590;-26
2022/04/29 05:21:19;;;;;;;2.70;1.60;;;;;;;8.87;52.19;99806.83;105087;1271;61108;-29
2022/04/29 05:23:52;;;;;;;5.50;1.50;;;;;;;9.03;50.83;99802.38;104794;1274;75455;-28
2022/04/29 05:26:37;;;;;;;2.80;1.70;;;;;;;9.16;50.71;99801.79;105084;1271;75794;-29
2022/04/29 05:29:34;;;;;;;3.30;1.50;;;;;;;9.13;51.07;99803.18;104859;1271;74296;-28
2022/04/29 05:32:22;;;;;;;2.50;1.30;;;;;;;9.28;50.95;99804.10;104679;1271;62211;-28
2022/04/29 05:34:50;;;;;;;3.80;1.60;;;;;;;9.19;50.44;99807.14;105072;1274;61257;-29
2022/04/29 05:37:37;;;;;;;2.90;1.30;;;;;;;9.21;51.00;99808.91;105099;1271;75466;-27
2022/04/29 05:42:59;;;;;;;2.50;1.40;;;;;;;9.39;50.42;99809.64;104626;1274;74239;-27
2022/04/29 05:45:27;;;;;;;3.10;1.10;;;;;;;9.69;51.00;99813.14;104886;1271;61945;-28
2022/04/29 05:47:57;;;;;;;3.10;1.60;;;;;;;9.98;49.65;99813.70;104730;1271;61244;-28
2022/04/29 05:50:26;;;;;;;1.90;1.10;;;;;;;10.24;49.57;99814.51;104838;1271;75264;-28
2022/04/29 05:52:55;;;;;;;7.00;1.40;;;;;;;10.53;48.15;99813.11;105026;1271;75998;-29
2022/04/29 05:55:24;;;;;;;3.60;1.30;;;;;;;10.69;47.72;99813.94;105153;1272;74391;-28
2022/04/29 05:58:12;;;;;;;3.00;1.00;;;;;;;10.80;46.37;99810.39;105088;1274;61184;-28
2022/04/29 06:00:44;;;;;;;2.10;1.20;;;;;;;10.86;46.56;99811.33;104794;1272;61119;-28
2022/04/29 06:03:12;;;;;;;1.90;0.90;;;;;;;11.11;47.31;99815.98;104839;1272;75452;-28
2022/04/29 06:05:40;;;;;;;1.90;1.20;;;;;;;11.35;46.43;99819.55;105131;1274;76074;-28
2022/04/29 06:08:10;;;;;;;2.30;1.00;;;;;;;11.50;46.47;99816.90;105012;1271;74709;-26
2022/04/29 06:10:49;;;;;;;1.50;1.00;;;;;;;11.58;45.02;99812.65;104578;1274;61083;-26
2022/04/29 06:13:18;;;;;;;2.40;1.20;;;;;;;11.77;45.52;99810.05;104872;1273;61018;-26
2022/04/29 06:16:06;;;;;;;1.90;1.10;;;;;;;12.05;45.13;99810.09;104741;1274;75371;-26
2022/04/29 06:18:56;;;;;;;2.20;1.10;;;;;;;12.26;44.66;99806.77;104645;1274;75836;-26
2022/04/29 06:21:59;;;;;;;2.10;1.00;;;;;;;12.41;44.20;99808.20;104845;1274;74330;-26
2022/04/29 06:24:27;;;;;;;2.50;1.60;;;;;;;12.60;43.82;99808.70;104842;1274;62157;-26
2022/04/29 06:26:54;;;;;;;1.00;0.90;;;;;;;12.79;42.35;99811.19;104782;1274;61038;-26
2022/04/29 06:29:22;;;;;;;1.70;0.80;;;;;;;12.95;40.45;99811.71;104750;1272;75369;-27
2022/04/29 06:31:54;;;;;;;1.40;0.80;;;;;;;12.98;39.87;99812.02;104799;1272;75976;-26
2022/04/29 06:34:43;;;;;;;1.30;0.90;;;;;;;13.10;39.49;99816.09;104787;1271;74493;-27
2022/04/29 06:37:11;;;;;;;1.50;0.90;;;;;;;13.23;38.61;99816.13;104611;1274;60992;-26
2022/04/29 06:39:42;;;;;;;2.60;0.80;;;;;;;13.38;38.01;99818.27;104741;1274;62211;-27
2022/04/29 06:42:50;;;;;;;2.10;0.90;;;;;;;13.73;39.22;99821.01;104968;1271;74246;-27
2022/04/29 06:45:40;;;;;;;1.90;0.90;;;;;;;13.80;37.90;99824.11;104736;1272;75950;-27
2022/04/29 06:48:24;;;;;;;2.30;0.90;;;;;;;13.85;37.58;99823.38;104750;1274;74123;-27
2022/04/29 06:51:12;;;;;;;1.60;0.70;;;;;;;13.92;37.76;99821.05;104972;1274;61153;-26
2022/04/29 06:53:47;;;;;;;2.80;1.00;;;;;;;13.93;37.89;99819.34;105056;1274;61074;-27
2022/04/29 06:56:19;;;;;;;1.40;0.80;;;;;;;14.05;38.66;99819.07;104644;1274;74261;-26
2022/04/29 06:58:47;;;;;;;2.60;0.80;;;;;;;14.21;37.88;99820.36;104830;1274;74946;-27
2022/04/29 07:01:19;;;;;;;1.10;0.80;;;;;;;14.29;37.37;99820.05;104814;1273;74483;-25
2022/04/29 07:03:52;;;;;;;2.10;0.70;;;;;;;14.46;37.21;99820.58;104891;1274;62146;-25
2022/04/29 07:06:22;;;;;;;1.30;0.60;;;;;;;14.50;35.82;99816.26;104767;1274;61045;-27
2022/04/29 07:08:51;;;;;;;1.70;1.10;;;;;;;14.61;35.71;99815.82;104831;1272;75641;-28
2022/04/29 07:12:00;;;;;;;2.50;1.10;;;;;;;14.81;37.98;99812.88;104429;1277;75864;-26
2022/04/29 07:14:35;;;;;;;1.50;0.80;;;;;;;14.84;37.50;99814.67;104157;1278;74403;-28
2022/04/29 07:17:10;;;;;;;1.70;1.00;;;;;;;15.00;35.68;99820.63;104428;1274;61122;-28
2022/04/29 07:19:44;;;;;;;7.50;1.10;;;;;;;15.35;35.88;99820.42;104796;1272;61144;-27
2022/04/29 07:22:27;;;;;;;1.50;1.00;;;;;;;15.58;35.29;99821.17;104666;1274;75409;-28
2022/04/29 07:24:55;;;;;;;1.80;0.90;;;;;;;15.54;35.64;99822.55;104772;1274;75158;-28
2022/04/29 07:27:24;;;;;;;2.60;1.00;;;;;;;15.48;35.37;99823.83;104771;1274;74351;-28
2022/04/29 07:29:51;;;;;;;5.10;1.10;;;;;;;15.41;35.35;99824.11;105011;1271;61048;-27
2022/04/29 07:32:27;;;;;;;2.60;1.10;;;;;;;15.44;35.07;99825.02;105080;1271;61107;-27
2022/04/29 07:43:45;;;;;;;2.00;0.80;;;;;;;15.60;34.81;99828.69;105090;1274;61153;-25
2022/04/29 07:46:14;;;;;;;2.20;1.10;;;;;;;15.68;35.45;99833.23;104950;1271;61112;-27
2022/04/29 07:48:52;;;;;;;1.50;1.20;;;;;;;15.94;33.29;99832.63;105083;1271;75510;-25
2022/04/29 07:51:21;;;;;;;2.50;1.30;;;;;;;16.14;32.86;99829.45;104938;1271;76399;-25
2022/04/29 07:53:48;;;;;;;3.60;1.20;;;;;;;16.33;32.85;99830.64;104775;1274;74235;-25
2022/04/29 07:56:16;;;;;;;6.70;4.50;;;;;;;16.37;32.60;99829.44;104815;1274;61961;-25
2022/04/29 07:58:45;;;;;;;3.00;1.10;;;;;;;16.38;33.07;99825.67;104797;1274;61156;-27
2022/04/29 08:01:12;;;;;;;1.90;1.10;;;;;;;16.24;31.81;99826.10;104780;1274;77328;-25
2022/04/29 08:03:42;;;;;;;2.60;0.80;;;;;;;16.63;32.64;99821.05;104826;1274;74766;-25
2022/04/29 08:06:16;;;;;;;1.50;0.90;;;;;;;17.23;32.23;99818.48;104617;1274;74156;-25
2022/04/29 08:08:44;;;;;;;4.60;1.10;;;;;;;17.59;31.14;99819.27;104708;1274;61180;-26
2022/04/29 08:11:12;;;;;;;1.80;0.90;;;;;;;17.56;31.16;99815.46;104734;1274;61136;-26
2022/04/29 08:14:00;;;;;;;1.90;1.10;;;;;;;17.51;31.64;99814.05;104420;1274;74529;-25
2022/04/29 08:17:07;;;;;;;1.60;0.80;;;;;;;17.89;30.61;99808.34;104792;1269;75908;-26
2022/04/29 08:19:43;;;;;;;1.80;1.00;;;;;;;18.29;31.06;99803.55;104926;1271;74364;-26
2022/04/29 08:22:17;;;;;;;1.70;1.00;;;;;;;18.64;30.02;99798.36;104882;1271;61146;-26
2022/04/29 08:24:45;;;;;;;1.30;0.80;;;;;;;18.90;28.83;99794.82;104673;1274;61119;-26
2022/04/29 08:27:17;;;;;;;2.30;1.10;;;;;;;18.89;29.34;99794.20;104876;1271;75524;-26
2022/04/29 08:29:57;;;;;;;0.90;0.80;;;;;;;18.90;28.54;99790.60;104794;1274;76037;-26
2022/04/29 08:32:26;;;;;;;1.40;0.70;;;;;;;19.04;27.93;99784.23;104896;1271;74273;-26
2022/04/29 08:34:54;;;;;;;2.20;0.70;;;;;;;19.14;28.32;99785.98;104809;1271;61209;-26
2022/04/29 08:37:23;;;;;;;0.90;0.70;;;;;;;19.19;28.71;99783.02;104624;1274;62122;-26
2022/04/29 08:39:52;;;;;;;3.30;1.00;;;;;;;19.49;27.01;99782.60;104793;1272;75570;-26
2022/04/29 08:42:23;;;;;;;0.90;0.80;;;;;;;19.54;26.65;99777.18;104882;1274;75824;-26
2022/04/29 08:44:50;;;;;;;0.80;0.60;;;;;;;19.08;26.71;99767.23;104564;1274;73437;-26
2022/04/29 08:47:38;;;;;;;1.60;0.90;;;;;;;18.11;26.22;99764.36;104858;1271;62312;-26
2022/04/29 08:50:16;;;;;;;3.00;1.10;;;;;;;17.79;27.72;99760.42;104723;1274;61935;-27
2022/04/29 08:52:44;;;;;;;1.40;0.90;;;;;;;17.49;29.00;99757.04;104727;1274;74480;-28
2022/04/29 09:00:44;;;;;;;2.00;0.90;;;;;;;18.35;28.77;99749.81;105107;1274;61150;-28
2022/04/29 09:03:14;;;;;;;1.80;0.80;;;;;;;18.10;29.42;99748.91;105029;1271;61021;-27
2022/04/29 09:05:42;;;;;;;3.70;1.00;;;;;;;17.44;30.23;99747.16;104817;1274;75486;-27
2022/04/29 09:08:14;;;;;;;17.10;1.50;;;;;;;17.28;30.21;99749.31;104828;1271;75267;-27
2022/04/29 09:10:56;;;;;;;1.50;0.90;;;;;;;17.12;28.84;99745.52;104603;1275;73753;-29
2022/04/29 09:13:27;;;;;;;;;;;;;;;17.35;28.20;99745.73;104731;1271;61159;-27
2022/04/29 09:16:01;;;;;;;1.40;0.80;;;;;;;17.41;29.13;99738.65;104756;1274;61859;-27
2022/04/29 09:18:49;;;;;;;1.20;1.00;;;;;;;16.65;30.55;99742.00;104737;1274;74350;-27
2022/04/29 09:21:27;;;;;;;3.30;1.00;;;;;;;16.48;32.50;99745.55;104795;1274;75891;-27
2022/04/29 09:24:00;;;;;;;0.70;0.70;;;;;;;16.45;31.28;99742.61;104734;1274;74333;-27
2022/04/29 09:26:35;;;;;;;2.80;1.20;;;;;;;16.42;32.18;99740.49;104725;1272;62204;-27
2022/04/29 09:29:21;;;;;;;1.70;0.80;;;;;;;16.16;32.29;99737.82;104630;1274;60994;-27
2022/04/29 09:32:18;;;;;;;1.80;0.70;;;;;;;15.91;32.66;99737.29;104417;1278;75537;-27
2022/04/29 09:34:54;;;;;;;1.40;0.80;;;;;;;15.62;32.43;99737.69;104860;1271;76154;-27
2022/04/29 09:37:27;;;;;;;4.80;0.90;;;;;;;15.66;32.83;99741.00;104897;1271;74319;-27
2022/04/29 09:40:03;;;;;;;1.50;0.90;;;;;;;15.68;34.86;99740.09;104655;1274;62212;-27
2022/04/29 09:42:44;;;;;;;1.20;0.70;;;;;;;15.71;32.05;99735.10;104721;1274;61091;-27
2022/04/29 09:45:23;;;;;;;1.10;0.80;;;;;;;15.74;31.78;99736.05;104714;1274;76031;-27
2022/04/29 09:47:54;;;;;;;2.70;1.30;;;;;;;15.73;32.46;99736.12;104626;1276;76219;-27
2022/04/29 09:50:22;;;;;;;3.20;0.90;;;;;;;15.58;34.12;99731.70;104660;1274;74653;-28
2022/04/29 09:52:49;;;;;;;1.40;0.90;;;;;;;15.98;33.89;99729.54;104641;1274;61128;-26
2022/04/29 09:55:18;;;;;;;4.00;1.30;;;;;;;16.07;33.42;99723.55;104605;1275;61102;-26
2022/04/29 09:57:51;;;;;;;3.30;0.70;;;;;;;15.56;32.26;99724.41;104726;1274;75581;-27
2022/04/29 10:00:19;;;;;;;1.90;0.90;;;;;;;15.67;33.63;99724.58;104808;1274;75047;-27
2022/04/29 10:02:50;;;;;;;3.10;0.80;;;;;;;15.50;33.67;99716.55;104812;1273;74343;-29
2022/04/29 10:05:19;;;;;;;1.80;0.90;;;;;;;15.27;35.06;99716.16;104672;1271;61381;-26
2022/04/29 10:08:07;;;;;;;1.50;1.00;;;;;;;15.15;33.44;99726.83;104977;1271;61893;-26
2022/04/29 10:10:35;;;;;;;1.20;0.90;;;;;;;15.08;34.72;99722.02;104795;1271;75495;-27
2022/04/29 10:15:26;;;;;;;3.30;1.20;;;;;;;15.04;34.41;99724.84;102465;1297;615597;-26
2022/04/29 10:21:19;;;;;;;2.00;1.30;;;;;;;15.17;35.62;99724.20;104342;1284;61022;-26
2022/04/29 10:23:57;;;;;;;1.90;0.90;;;;;;;15.12;35.12;99725.23;104442;1284;72916;-26
2022/04/29 10:26:24;;;;;;;3.30;1.20;;;;;;;15.10;34.31;99727.10;104269;1284;76380;-26
2022/04/29 10:28:52;;;;;;;4.50;1.00;;;;;;;15.10;35.33;99728.16;104161;1281;423662;-26
2022/04/29 10:31:21;;;;;;;1.80;1.20;;;;;;;15.11;34.63;99724.45;104485;1281;61150;-26
2022/04/29 10:33:49;;;;;;;1.60;1.20;;;;;;;15.66;35.19;99725.22;104351;1281;61213;-26
2022/04/29 10:36:22;;;;;;;3.00;1.00;;;;;;;16.66;33.82;99720.66;104147;1281;73439;-26
2022/04/29 10:38:49;;;;;;;3.40;0.80;;;;;;;16.84;31.92;99722.99;104461;1281;75955;-26
2022/04/29 10:41:25;;;;;;;2.10;1.10;;;;;;;16.75;32.66;99723.45;104202;1281;74382;-26
2022/04/29 10:43:55;;;;;;;1.60;1.10;;;;;;;16.38;32.73;99719.06;103959;1281;61100;-26
2022/04/29 10:46:24;;;;;;;2.20;1.20;;;;;;;16.00;33.60;99713.40;104191;1281;62045;-26
2022/04/29 10:49:26;;;;;;;2.90;1.30;;;;;;;15.56;33.48;99711.44;104020;1281;74580;-26
2022/04/29 10:52:25;;;;;;;3.10;1.20;;;;;;;15.59;33.97;99715.20;104215;1281;76054;-26
2022/04/29 10:55:05;;;;;;;2.70;1.20;;;;;;;15.75;33.89;99719.13;104227;1281;74653;-26
2022/04/29 10:57:46;;;;;;;1.50;0.90;;;;;;;15.66;32.83;99716.27;104434;1281;62545;-26
2022/04/29 11:00:24;;;;;;;5.40;0.80;;;;;;;15.60;32.72;99715.27;104324;1281;61091;-26
2022/04/29 11:03:35;;;;;;;1.30;1.00;;;;;;;15.62;33.61;99718.77;104318;1281;74594;-26
2022/04/29 11:06:07;;;;;;;1.90;0.90;;;;;;;15.43;34.58;99718.41;104446;1281;75030;-26
2022/04/29 11:08:38;;;;;;;1.40;1.20;;;;;;;15.18;34.93;99715.37;104172;1281;73199;-26
2022/04/29 11:11:05;;;;;;;2.20;1.10;;;;;;;14.99;34.26;99714.96;104426;1281;61911;-26
2022/04/29 11:14:02;;;;;;;2.50;0.90;;;;;;;14.93;36.22;99721.50;104634;1281;62041;-26
2022/04/29 11:16:55;;;;;;;1.70;1.10;;;;;;;14.93;37.21;99717.13;104505;1281;74574;-26
2022/04/29 11:19:48;;;;;;;2.00;1.30;;;;;;;14.90;37.65;99714.90;104503;1281;74348;-26
2022/04/29 11:25:07;;;;;;;1.80;1.10;;;;;;;14.61;35.54;99708.34;104443;1281;61964;-26
2022/04/29 11:27:40;;;;;;;6.10;1.30;;;;;;;14.73;36.68;99709.98;104460;1281;61307;-27
2022/04/29 11:30:14;;;;;;;2.10;1.10;;;;;;;14.63;36.90;99707.65;104534;1281;74557;-26
2022/04/29 11:32:46;;;;;;;2.80;1.20;;;;;;;14.70;36.80;99707.24;104384;1281;75939;-26
2022/04/29 11:35:13;;;;;;;1.70;1.00;;;;;;;14.76;37.98;99705.85;104612;1281;74238;-26
2022/04/29 11:37:41;;;;;;;2.00;1.00;;;;;;;14.76;37.10;99699.85;104479;1281;61033;-26
2022/04/29 11:40:09;;;;;;;1.60;1.00;;;;;;;14.75;35.68;99703.65;104569;1280;61124;-26
2022/04/29 11:42:37;;;;;;;1.40;0.90;;;;;;;14.87;36.78;99702.75;104045;1281;73469;-27
2022/04/29 11:45:08;;;;;;;3.70;1.10;;;;;;;15.01;36.35;99705.52;104401;1281;75857;-25
2022/04/29 11:47:36;;;;;;;1.80;1.20;;;;;;;14.85;36.82;99705.86;104147;1281;75189;-27
2022/04/29 11:50:05;;;;;;;1.40;1.00;;;;;;;15.27;36.94;99704.63;104625;1281;61922;-28
2022/04/29 11:52:33;;;;;;;8.00;1.20;;;;;;;15.64;35.08;99699.73;104538;1281;60979;-25
2022/04/29 11:55:09;;;;;;;17.10;1.60;;;;;;;16.24;34.08;99698.37;104522;1281;74629;-28
2022/04/29 11:57:47;;;;;;;1.30;1.00;;;;;;;16.72;33.38;99695.55;104455;1281;75971;-26
2022/04/29 12:00:25;;;;;;;3.80;1.30;;;;;;;16.65;34.97;99690.11;104310;1281;73309;-27
2022/04/29 12:02:53;;;;;;;1.80;1.10;;;;;;;16.49;33.69;99685.86;104251;1281;61994;-27
2022/04/29 12:05:23;;;;;;;3.30;1.20;;;;;;;16.52;32.72;99685.52;104406;1278;61155;-25
2022/04/29 12:07:52;;;;;;;4.70;1.70;;;;;;;16.22;35.18;99689.23;104532;1281;74984;-26
2022/04/29 12:10:30;;;;;;;2.40;1.40;;;;;;;15.85;38.54;99688.83;104502;1281;75858;-28
2022/04/29 12:12:59;;;;;;;3.10;1.60;;;;;;;15.09;40.71;99685.05;104504;1281;74148;-27
2022/04/29 12:15:37;;;;;;;4.00;1.70;;;;;;;14.83;40.79;99680.02;104258;1281;61973;-26
2022/04/29 12:18:08;;;;;;;3.30;1.40;;;;;;;14.46;42.24;99674.17;104321;1278;60971;-27
2022/04/29 12:20:58;;;;;;;2.50;1.70;;;;;;;14.17;42.10;99674.75;104334;1278;73696;-25
2022/04/29 12:23:26;;;;;;;2.70;1.40;;;;;;;14.15;42.97;99679.64;104510;1278;75974;-26
2022/04/29 12:25:55;;;;;;;3.10;1.40;;;;;;;14.13;43.59;99680.36;104557;1277;74578;-26
2022/04/29 12:28:26;;;;;;;4.90;1.70;;;;;;;13.99;42.88;99680.27;104393;1278;61204;-26